sensor_id;sensor_type;location;lat;lon;timestamp;temperature;humidity
28189;DHT22;15471;51.166;4.470;2022-10-28T00:01:21;17.10;99.90
28189;DHT22;15471;51.166;4.470;2022-10-28T00:03:53;17.00;99.90
28189;DHT22;15471;51.166;4.470;2022-10-28T00:06:21;17.10;99.90
28189;DHT22;15471;51.166;4.470;2022-10-28T00:08:48;17.10;99.90
28189;DHT22;15471;51.166;4.470;2022-10-28T00:11:18;17.00;99.90
28189;DHT22;15471;51.166;4.470;2022-10-28T00:13:45;17.00;99.90
28189;DHT22;15471;51.166;4.470;2022-10-28T00:16:14;17.00;99.90
28189;DHT22;15471;51.166;4.470;2022-10-28T00:18:40;17.00;99.90
28189;DHT22;15471;51.166;4.470;2022-10-28T00:21:13;16.90;99.90
28189;DHT22;15471;51.166;4.470;2022-10-28T00:23:39;16.90;99.90
28189;DHT22;15471;51.166;4.470;2022-10-28T00:26:10;16.90;99.90
28189;DHT22;15471;51.166;4.470;2022-10-28T00:28:57;16.90;99.90
28189;DHT22;15471;51.166;4.470;2022-10-28T00:31:25;16.90;99.90
28189;DHT22;15471;51.166;4.470;2022-10-28T00:33:52;16.80;99.90
28189;DHT22;15471;51.166;4.470;2022-10-28T00:36:21;16.80;99.90
28189;DHT22;15471;51.166;4.470;2022-10-28T00:38:48;16.90;99.90
28189;DHT22;15471;51.166;4.470;2022-10-28T00:41:18;16.80;99.90
28189;DHT22;15471;51.166;4.470;2022-10-28T00:43:47;16.80;99.90
28189;DHT22;15471;51.166;4.470;2022-10-28T00:46:44;16.80;99.90
28189;DHT22;15471;51.166;4.470;2022-10-28T00:49:29;16.80;99.90
28189;DHT22;15471;51.166;4.470;2022-10-28T00:52:06;16.80;99.90
28189;DHT22;15471;51.166;4.470;2022-10-28T00:54:34;16.80;99.90
28189;DHT22;15471;51.166;4.470;2022-10-28T00:57:03;16.80;99.90
28189;DHT22;15471;51.166;4.470;2022-10-28T00:59:36;16.80;99.90
28189;DHT22;15471;51.166;4.470;2022-10-28T01:02:03;16.80;99.90
28189;DHT22;15471;51.166;4.470;2022-10-28T01:04:30;16.80;99.90
28189;DHT22;15471;51.166;4.470;2022-10-28T01:06:58;16.80;99.90
28189;DHT22;15471;51.166;4.470;2022-10-28T01:09:25;16.80;99.90
28189;DHT22;15471;51.166;4.470;2022-10-28T01:22:50;16.70;99.90
28189;DHT22;15471;51.166;4.470;2022-10-28T01:36:24;16.60;99.90
28189;DHT22;15471;51.166;4.470;2022-10-28T01:39:12;16.60;99.90
28189;DHT22;15471;51.166;4.470;2022-10-28T01:41:50;16.60;99.90
28189;DHT22;15471;51.166;4.470;2022-10-28T01:47:30;16.60;99.90
28189;DHT22;15471;51.166;4.470;2022-10-28T01:50:05;16.60;99.90
28189;DHT22;15471;51.166;4.470;2022-10-28T01:52:32;16.60;99.90
28189;DHT22;15471;51.166;4.470;2022-10-28T01:55:08;16.60;99.90
28189;DHT22;15471;51.166;4.470;2022-10-28T01:57:37;16.50;99.90
28189;DHT22;15471;51.166;4.470;2022-10-28T02:00:04;16.50;99.90
28189;DHT22;15471;51.166;4.470;2022-10-28T02:02:38;16.50;99.90
28189;DHT22;15471;51.166;4.470;2022-10-28T02:05:51;16.50;99.90
28189;DHT22;15471;51.166;4.470;2022-10-28T02:07:56;16.50;99.90
28189;DHT22;15471;51.166;4.470;2022-10-28T02:10:28;16.50;99.90
28189;DHT22;15471;51.166;4.470;2022-10-28T02:13:01;16.50;99.90
28189;DHT22;15471;51.166;4.470;2022-10-28T02:15:45;16.50;99.90
28189;DHT22;15471;51.166;4.470;2022-10-28T02:18:21;16.50;99.90
28189;DHT22;15471;51.166;4.470;2022-10-28T02:26:16;16.40;99.90
28189;DHT22;15471;51.166;4.470;2022-10-28T02:29:06;16.40;99.90
28189;DHT22;15471;51.166;4.470;2022-10-28T02:31:44;16.30;99.90
28189;DHT22;15471;51.166;4.470;2022-10-28T02:34:17;16.30;99.90
28189;DHT22;15471;51.166;4.470;2022-10-28T02:36:48;16.20;99.90
28189;DHT22;15471;51.166;4.470;2022-10-28T02:39:19;16.20;99.90
28189;DHT22;15471;51.166;4.470;2022-10-28T02:41:54;16.20;99.90
28189;DHT22;15471;51.166;4.470;2022-10-28T02:44:27;16.10;99.90
28189;DHT22;15471;51.166;4.470;2022-10-28T02:46:57;16.10;99.90
28189;DHT22;15471;51.166;4.470;2022-10-28T02:49:24;16.10;99.90
28189;DHT22;15471;51.166;4.470;2022-10-28T02:51:54;16.10;99.90
28189;DHT22;15471;51.166;4.470;2022-10-28T02:57:03;16.00;99.90
28189;DHT22;15471;51.166;4.470;2022-10-28T02:59:30;16.00;99.90
28189;DHT22;15471;51.166;4.470;2022-10-28T03:01:57;15.90;99.90
28189;DHT22;15471;51.166;4.470;2022-10-28T03:04:23;16.00;99.90
28189;DHT22;15471;51.166;4.470;2022-10-28T03:06:49;15.90;99.90
28189;DHT22;15471;51.166;4.470;2022-10-28T03:09:15;15.90;99.90
28189;DHT22;15471;51.166;4.470;2022-10-28T03:11:41;16.00;99.90
28189;DHT22;15471;51.166;4.470;2022-10-28T03:14:08;16.00;99.90
28189;DHT22;15471;51.166;4.470;2022-10-28T03:16:34;16.00;99.90
28189;DHT22;15471;51.166;4.470;2022-10-28T03:19:00;16.00;99.90
28189;DHT22;15471;51.166;4.470;2022-10-28T03:21:26;16.00;99.90
28189;DHT22;15471;51.166;4.470;2022-10-28T03:23:52;16.00;99.90
28189;DHT22;15471;51.166;4.470;2022-10-28T03:26:18;16.00;99.90
28189;DHT22;15471;51.166;4.470;2022-10-28T03:28:44;16.00;99.90
28189;DHT22;15471;51.166;4.470;2022-10-28T03:31:11;15.90;99.90
28189;DHT22;15471;51.166;4.470;2022-10-28T03:33:37;16.00;99.90
28189;DHT22;15471;51.166;4.470;2022-10-28T03:36:03;15.90;99.90
28189;DHT22;15471;51.166;4.470;2022-10-28T03:38:30;15.90;99.90
28189;DHT22;15471;51.166;4.470;2022-10-28T03:40:56;16.00;99.90
28189;DHT22;15471;51.166;4.470;2022-10-28T03:43:22;15.80;99.90
28189;DHT22;15471;51.166;4.470;2022-10-28T03:45:48;15.80;99.90
28189;DHT22;15471;51.166;4.470;2022-10-28T03:48:14;15.80;99.90
28189;DHT22;15471;51.166;4.470;2022-10-28T03:50:40;15.80;99.90
28189;DHT22;15471;51.166;4.470;2022-10-28T03:53:06;15.80;99.90
28189;DHT22;15471;51.166;4.470;2022-10-28T03:55:33;15.80;99.90
28189;DHT22;15471;51.166;4.470;2022-10-28T03:58:02;15.80;99.90
28189;DHT22;15471;51.166;4.470;2022-10-28T04:00:28;15.80;99.90
28189;DHT22;15471;51.166;4.470;2022-10-28T04:02:54;15.90;99.90
28189;DHT22;15471;51.166;4.470;2022-10-28T04:05:21;15.80;99.90
28189;DHT22;15471;51.166;4.470;2022-10-28T04:07:47;15.80;99.90
28189;DHT22;15471;51.166;4.470;2022-10-28T04:10:13;15.80;99.90
28189;DHT22;15471;51.166;4.470;2022-10-28T04:12:40;15.80;99.90
28189;DHT22;15471;51.166;4.470;2022-10-28T04:15:06;15.70;99.90
28189;DHT22;15471;51.166;4.470;2022-10-28T04:17:35;15.70;99.90
28189;DHT22;15471;51.166;4.470;2022-10-28T04:20:02;15.70;99.90
28189;DHT22;15471;51.166;4.470;2022-10-28T04:22:28;15.60;99.90
28189;DHT22;15471;51.166;4.470;2022-10-28T04:24:54;15.70;99.90
28189;DHT22;15471;51.166;4.470;2022-10-28T04:27:20;15.70;99.90
28189;DHT22;15471;51.166;4.470;2022-10-28T04:29:46;15.60;99.90
28189;DHT22;15471;51.166;4.470;2022-10-28T04:32:12;15.50;99.90
28189;DHT22;15471;51.166;4.470;2022-10-28T04:34:38;15.50;99.90
28189;DHT22;15471;51.166;4.470;2022-10-28T04:37:04;15.50;99.90
28189;DHT22;15471;51.166;4.470;2022-10-28T04:39:31;15.50;99.90
28189;DHT22;15471;51.166;4.470;2022-10-28T04:41:57;15.60;99.90
28189;DHT22;15471;51.166;4.470;2022-10-28T04:44:23;15.50;99.90
28189;DHT22;15471;51.166;4.470;2022-10-28T04:46:49;15.50;99.90
28189;DHT22;15471;51.166;4.470;2022-10-28T04:49:15;15.40;99.90
28189;DHT22;15471;51.166;4.470;2022-10-28T04:51:41;15.40;99.90
28189;DHT22;15471;51.166;4.470;2022-10-28T04:54:07;15.30;99.90
28189;DHT22;15471;51.166;4.470;2022-10-28T04:56:34;15.30;99.90
28189;DHT22;15471;51.166;4.470;2022-10-28T04:58:59;15.30;99.90
28189;DHT22;15471;51.166;4.470;2022-10-28T05:01:25;15.30;99.90
28189;DHT22;15471;51.166;4.470;2022-10-28T05:03:52;15.30;99.90
28189;DHT22;15471;51.166;4.470;2022-10-28T05:06:18;15.30;99.90
28189;DHT22;15471;51.166;4.470;2022-10-28T05:08:44;15.30;99.90
28189;DHT22;15471;51.166;4.470;2022-10-28T05:11:10;15.20;99.90
28189;DHT22;15471;51.166;4.470;2022-10-28T05:13:36;15.20;99.90
28189;DHT22;15471;51.166;4.470;2022-10-28T05:16:03;15.20;99.90
28189;DHT22;15471;51.166;4.470;2022-10-28T05:18:29;15.10;99.90
28189;DHT22;15471;51.166;4.470;2022-10-28T05:20:56;15.10;99.90
28189;DHT22;15471;51.166;4.470;2022-10-28T05:23:23;15.00;99.90
28189;DHT22;15471;51.166;4.470;2022-10-28T05:25:50;15.00;99.90
28189;DHT22;15471;51.166;4.470;2022-10-28T05:28:17;15.10;99.90
28189;DHT22;15471;51.166;4.470;2022-10-28T05:30:43;15.10;99.90
28189;DHT22;15471;51.166;4.470;2022-10-28T05:33:10;15.10;99.90
28189;DHT22;15471;51.166;4.470;2022-10-28T05:35:39;15.20;99.90
28189;DHT22;15471;51.166;4.470;2022-10-28T05:38:05;15.10;99.90
28189;DHT22;15471;51.166;4.470;2022-10-28T05:40:32;15.10;99.90
28189;DHT22;15471;51.166;4.470;2022-10-28T05:43:00;15.10;99.90
28189;DHT22;15471;51.166;4.470;2022-10-28T05:45:27;15.10;99.90
28189;DHT22;15471;51.166;4.470;2022-10-28T05:47:53;15.10;99.90
28189;DHT22;15471;51.166;4.470;2022-10-28T05:50:20;15.10;99.90
28189;DHT22;15471;51.166;4.470;2022-10-28T05:52:50;15.20;99.90
28189;DHT22;15471;51.166;4.470;2022-10-28T05:55:18;15.20;99.90
28189;DHT22;15471;51.166;4.470;2022-10-28T05:57:45;15.20;99.90
28189;DHT22;15471;51.166;4.470;2022-10-28T06:00:15;15.30;99.90
28189;DHT22;15471;51.166;4.470;2022-10-28T06:02:41;15.30;99.90
28189;DHT22;15471;51.166;4.470;2022-10-28T06:05:10;15.30;99.90
28189;DHT22;15471;51.166;4.470;2022-10-28T06:07:37;15.30;99.90
28189;DHT22;15471;51.166;4.470;2022-10-28T06:10:05;15.30;99.90
28189;DHT22;15471;51.166;4.470;2022-10-28T06:12:32;15.30;99.90
28189;DHT22;15471;51.166;4.470;2022-10-28T06:14:59;15.30;99.90
28189;DHT22;15471;51.166;4.470;2022-10-28T06:17:25;15.30;99.90
28189;DHT22;15471;51.166;4.470;2022-10-28T06:19:51;15.30;99.90
28189;DHT22;15471;51.166;4.470;2022-10-28T06:22:17;15.20;99.90
28189;DHT22;15471;51.166;4.470;2022-10-28T06:24:43;15.30;99.90
28189;DHT22;15471;51.166;4.470;2022-10-28T06:27:11;15.30;99.90
28189;DHT22;15471;51.166;4.470;2022-10-28T06:29:38;15.30;99.90
28189;DHT22;15471;51.166;4.470;2022-10-28T06:32:04;15.20;99.90
28189;DHT22;15471;51.166;4.470;2022-10-28T06:34:30;15.20;99.90
28189;DHT22;15471;51.166;4.470;2022-10-28T06:36:56;15.30;99.90
28189;DHT22;15471;51.166;4.470;2022-10-28T06:39:22;15.30;99.90
28189;DHT22;15471;51.166;4.470;2022-10-28T06:41:49;15.30;99.90
28189;DHT22;15471;51.166;4.470;2022-10-28T06:44:15;15.40;99.90
28189;DHT22;15471;51.166;4.470;2022-10-28T06:46:41;15.40;99.90
28189;DHT22;15471;51.166;4.470;2022-10-28T06:49:07;15.40;99.90
28189;DHT22;15471;51.166;4.470;2022-10-28T06:51:33;15.40;99.90
28189;DHT22;15471;51.166;4.470;2022-10-28T06:53:59;15.50;99.90
28189;DHT22;15471;51.166;4.470;2022-10-28T06:56:26;15.50;99.90
28189;DHT22;15471;51.166;4.470;2022-10-28T06:58:53;15.50;99.90
28189;DHT22;15471;51.166;4.470;2022-10-28T07:01:20;15.60;99.90
28189;DHT22;15471;51.166;4.470;2022-10-28T07:03:47;15.70;99.90
28189;DHT22;15471;51.166;4.470;2022-10-28T07:06:14;15.70;99.90
28189;DHT22;15471;51.166;4.470;2022-10-28T07:08:41;15.80;99.90
28189;DHT22;15471;51.166;4.470;2022-10-28T07:11:07;15.90;99.90
28189;DHT22;15471;51.166;4.470;2022-10-28T07:13:33;15.90;99.90
28189;DHT22;15471;51.166;4.470;2022-10-28T07:15:59;16.00;99.90
28189;DHT22;15471;51.166;4.470;2022-10-28T07:18:28;16.10;99.90
28189;DHT22;15471;51.166;4.470;2022-10-28T07:20:57;16.10;99.90
28189;DHT22;15471;51.166;4.470;2022-10-28T07:23:24;16.20;99.90
28189;DHT22;15471;51.166;4.470;2022-10-28T07:25:54;16.30;99.90
28189;DHT22;15471;51.166;4.470;2022-10-28T07:28:22;16.40;99.90
28189;DHT22;15471;51.166;4.470;2022-10-28T07:30:48;16.40;99.90
28189;DHT22;15471;51.166;4.470;2022-10-28T07:33:14;16.50;99.90
28189;DHT22;15471;51.166;4.470;2022-10-28T07:35:41;16.50;99.90
28189;DHT22;15471;51.166;4.470;2022-10-28T07:38:07;16.60;99.90
28189;DHT22;15471;51.166;4.470;2022-10-28T07:40:33;16.60;99.90
28189;DHT22;15471;51.166;4.470;2022-10-28T07:42:59;16.70;99.90
28189;DHT22;15471;51.166;4.470;2022-10-28T07:45:26;16.80;99.90
28189;DHT22;15471;51.166;4.470;2022-10-28T07:47:52;16.80;99.90
28189;DHT22;15471;51.166;4.470;2022-10-28T07:50:18;16.80;99.90
28189;DHT22;15471;51.166;4.470;2022-10-28T07:52:44;16.90;99.90
28189;DHT22;15471;51.166;4.470;2022-10-28T07:55:10;17.00;99.90
28189;DHT22;15471;51.166;4.470;2022-10-28T07:57:37;17.10;99.90
28189;DHT22;15471;51.166;4.470;2022-10-28T08:00:04;17.20;99.90
28189;DHT22;15471;51.166;4.470;2022-10-28T08:02:36;17.30;99.90
28189;DHT22;15471;51.166;4.470;2022-10-28T08:05:02;17.40;99.90
28189;DHT22;15471;51.166;4.470;2022-10-28T08:07:29;17.60;99.90
28189;DHT22;15471;51.166;4.470;2022-10-28T08:09:57;17.60;99.90
28189;DHT22;15471;51.166;4.470;2022-10-28T08:12:23;17.70;99.90
28189;DHT22;15471;51.166;4.470;2022-10-28T08:14:49;17.80;99.90
28189;DHT22;15471;51.166;4.470;2022-10-28T08:17:16;17.90;99.90
28189;DHT22;15471;51.166;4.470;2022-10-28T08:19:42;18.00;99.90
28189;DHT22;15471;51.166;4.470;2022-10-28T08:22:08;18.10;99.90
28189;DHT22;15471;51.166;4.470;2022-10-28T08:24:34;18.20;99.90
28189;DHT22;15471;51.166;4.470;2022-10-28T08:27:01;18.10;99.90
28189;DHT22;15471;51.166;4.470;2022-10-28T08:29:27;18.20;99.90
28189;DHT22;15471;51.166;4.470;2022-10-28T08:31:53;18.20;99.90
28189;DHT22;15471;51.166;4.470;2022-10-28T08:34:19;18.20;99.90
28189;DHT22;15471;51.166;4.470;2022-10-28T08:36:45;18.30;99.90
28189;DHT22;15471;51.166;4.470;2022-10-28T08:39:11;18.30;99.90
28189;DHT22;15471;51.166;4.470;2022-10-28T08:41:44;18.40;99.90
28189;DHT22;15471;51.166;4.470;2022-10-28T08:44:34;18.40;99.90
28189;DHT22;15471;51.166;4.470;2022-10-28T08:50:16;18.60;99.90
28189;DHT22;15471;51.166;4.470;2022-10-28T08:52:53;18.60;99.90
28189;DHT22;15471;51.166;4.470;2022-10-28T08:55:28;18.60;99.90
28189;DHT22;15471;51.166;4.470;2022-10-28T08:58:06;18.70;99.90
28189;DHT22;15471;51.166;4.470;2022-10-28T09:00:33;18.70;99.90
28189;DHT22;15471;51.166;4.470;2022-10-28T09:05:44;18.80;99.90
28189;DHT22;15471;51.166;4.470;2022-10-28T09:08:27;19.00;99.90
28189;DHT22;15471;51.166;4.470;2022-10-28T09:11:12;19.30;99.90
28189;DHT22;15471;51.166;4.470;2022-10-28T09:16:48;20.00;99.90
28189;DHT22;15471;51.166;4.470;2022-10-28T09:21:47;20.70;99.90
28189;DHT22;15471;51.166;4.470;2022-10-28T09:24:23;20.80;99.90
28189;DHT22;15471;51.166;4.470;2022-10-28T09:26:56;21.00;99.90
28189;DHT22;15471;51.166;4.470;2022-10-28T09:35:12;21.20;99.90
28189;DHT22;15471;51.166;4.470;2022-10-28T09:37:43;21.20;99.90
28189;DHT22;15471;51.166;4.470;2022-10-28T09:40:20;21.40;99.90
28189;DHT22;15471;51.166;4.470;2022-10-28T09:45:45;21.60;99.90
28189;DHT22;15471;51.166;4.470;2022-10-28T09:48:14;21.60;99.90
28189;DHT22;15471;51.166;4.470;2022-10-28T09:50:41;21.60;99.90
28189;DHT22;15471;51.166;4.470;2022-10-28T09:53:32;21.50;99.90
28189;DHT22;15471;51.166;4.470;2022-10-28T09:56:01;21.40;99.90
28189;DHT22;15471;51.166;4.470;2022-10-28T09:58:28;21.30;99.90
28189;DHT22;15471;51.166;4.470;2022-10-28T10:00:54;21.40;99.90
28189;DHT22;15471;51.166;4.470;2022-10-28T10:03:20;21.40;99.90
28189;DHT22;15471;51.166;4.470;2022-10-28T10:05:49;21.40;99.90
28189;DHT22;15471;51.166;4.470;2022-10-28T10:08:18;21.50;99.90
28189;DHT22;15471;51.166;4.470;2022-10-28T10:11:04;21.60;99.90
28189;DHT22;15471;51.166;4.470;2022-10-28T10:13:38;21.70;99.90
28189;DHT22;15471;51.166;4.470;2022-10-28T10:16:17;22.00;99.90
28189;DHT22;15471;51.166;4.470;2022-10-28T10:18:49;22.20;99.90
28189;DHT22;15471;51.166;4.470;2022-10-28T10:21:15;22.40;99.90
28189;DHT22;15471;51.166;4.470;2022-10-28T10:23:44;22.40;99.90
28189;DHT22;15471;51.166;4.470;2022-10-28T10:26:12;22.40;99.90
28189;DHT22;15471;51.166;4.470;2022-10-28T10:28:45;22.40;99.90
28189;DHT22;15471;51.166;4.470;2022-10-28T10:31:30;22.40;99.90
28189;DHT22;15471;51.166;4.470;2022-10-28T10:33:57;22.30;99.90
28189;DHT22;15471;51.166;4.470;2022-10-28T10:36:24;22.30;99.90
28189;DHT22;15471;51.166;4.470;2022-10-28T10:38:55;22.30;99.90
28189;DHT22;15471;51.166;4.470;2022-10-28T10:41:39;22.40;99.90
28189;DHT22;15471;51.166;4.470;2022-10-28T10:49:33;22.50;99.90
28189;DHT22;15471;51.166;4.470;2022-10-28T10:52:21;22.50;99.90
28189;DHT22;15471;51.166;4.470;2022-10-28T10:55:04;22.50;99.90
28189;DHT22;15471;51.166;4.470;2022-10-28T10:57:32;22.40;99.90
28189;DHT22;15471;51.166;4.470;2022-10-28T10:59:58;22.40;99.90
28189;DHT22;15471;51.166;4.470;2022-10-28T11:02:32;22.50;99.90
28189;DHT22;15471;51.166;4.470;2022-10-28T11:05:08;22.40;99.90
28189;DHT22;15471;51.166;4.470;2022-10-28T11:07:37;22.40;99.90
28189;DHT22;15471;51.166;4.470;2022-10-28T11:10:06;22.40;99.90
28189;DHT22;15471;51.166;4.470;2022-10-28T11:12:53;22.40;99.90
28189;DHT22;15471;51.166;4.470;2022-10-28T11:15:25;22.40;99.90
28189;DHT22;15471;51.166;4.470;2022-10-28T11:18:15;22.40;99.90
28189;DHT22;15471;51.166;4.470;2022-10-28T11:20:55;22.30;99.90
28189;DHT22;15471;51.166;4.470;2022-10-28T11:26:13;22.40;99.90
28189;DHT22;15471;51.166;4.470;2022-10-28T11:34:12;22.40;99.90
28189;DHT22;15471;51.166;4.470;2022-10-28T11:43:00;22.60;99.90
28189;DHT22;15471;51.166;4.470;2022-10-28T11:45:37;22.50;99.90
28189;DHT22;15471;51.166;4.470;2022-10-28T11:48:33;22.50;99.90
28189;DHT22;15471;51.166;4.470;2022-10-28T11:57:15;22.30;99.90
28189;DHT22;15471;51.166;4.470;2022-10-28T12:00:03;22.20;99.90
28189;DHT22;15471;51.166;4.470;2022-10-28T12:09:16;22.30;99.90
28189;DHT22;15471;51.166;4.470;2022-10-28T12:12:08;22.20;99.90
28189;DHT22;15471;51.166;4.470;2022-10-28T12:20:48;22.20;99.90
28189;DHT22;15471;51.166;4.470;2022-10-28T12:23:20;22.20;99.90
28189;DHT22;15471;51.166;4.470;2022-10-28T12:25:48;22.10;99.90
28189;DHT22;15471;51.166;4.470;2022-10-28T12:28:18;22.10;99.90
28189;DHT22;15471;51.166;4.470;2022-10-28T12:30:49;22.20;99.90
28189;DHT22;15471;51.166;4.470;2022-10-28T12:35:50;22.30;99.90
28189;DHT22;15471;51.166;4.470;2022-10-28T12:41:22;22.40;99.90
28189;DHT22;15471;51.166;4.470;2022-10-28T12:43:57;22.50;99.90
28189;DHT22;15471;51.166;4.470;2022-10-28T12:49:43;22.50;99.90
28189;DHT22;15471;51.166;4.470;2022-10-28T12:55:16;22.70;99.90
28189;DHT22;15471;51.166;4.470;2022-10-28T13:03:39;22.70;99.90
28189;DHT22;15471;51.166;4.470;2022-10-28T13:06:25;22.60;99.90
28189;DHT22;15471;51.166;4.470;2022-10-28T13:17:59;22.40;99.90
28189;DHT22;15471;51.166;4.470;2022-10-28T13:26:36;22.50;99.90
28189;DHT22;15471;51.166;4.470;2022-10-28T13:29:06;22.50;99.90
28189;DHT22;15471;51.166;4.470;2022-10-28T13:31:45;22.50;99.90
28189;DHT22;15471;51.166;4.470;2022-10-28T13:34:17;22.60;99.90
28189;DHT22;15471;51.166;4.470;2022-10-28T13:37:00;22.60;99.90
28189;DHT22;15471;51.166;4.470;2022-10-28T13:55:56;22.50;99.90
28189;DHT22;15471;51.166;4.470;2022-10-28T13:58:31;22.40;99.90
28189;DHT22;15471;51.166;4.470;2022-10-28T14:06:47;22.50;99.90
28189;DHT22;15471;51.166;4.470;2022-10-28T14:09:27;22.40;99.90
28189;DHT22;15471;51.166;4.470;2022-10-28T14:17:41;22.60;99.90
28189;DHT22;15471;51.166;4.470;2022-10-28T14:22:55;22.50;99.90
28189;DHT22;15471;51.166;4.470;2022-10-28T14:44:51;22.30;99.90
28189;DHT22;15471;51.166;4.470;2022-10-28T14:50:20;22.30;99.90
28189;DHT22;15471;51.166;4.470;2022-10-28T14:52:48;22.40;99.90
28189;DHT22;15471;51.166;4.470;2022-10-28T14:55:25;22.40;99.90
28189;DHT22;15471;51.166;4.470;2022-10-28T14:57:52;22.50;99.90
28189;DHT22;15471;51.166;4.470;2022-10-28T15:00:20;22.40;99.90
28189;DHT22;15471;51.166;4.470;2022-10-28T15:02:47;22.50;99.90
28189;DHT22;15471;51.166;4.470;2022-10-28T15:05:22;22.40;99.90
28189;DHT22;15471;51.166;4.470;2022-10-28T15:07:54;22.40;99.90
28189;DHT22;15471;51.166;4.470;2022-10-28T15:10:32;22.50;99.90
28189;DHT22;15471;51.166;4.470;2022-10-28T15:12:59;22.50;99.90
28189;DHT22;15471;51.166;4.470;2022-10-28T15:15:31;22.50;99.90
28189;DHT22;15471;51.166;4.470;2022-10-28T15:17:58;22.40;99.90
28189;DHT22;15471;51.166;4.470;2022-10-28T15:22:52;22.30;99.90
28189;DHT22;15471;51.166;4.470;2022-10-28T15:25:20;22.10;99.90
28189;DHT22;15471;51.166;4.470;2022-10-28T15:27:49;22.00;99.90
28189;DHT22;15471;51.166;4.470;2022-10-28T15:32:52;21.90;99.90
28189;DHT22;15471;51.166;4.470;2022-10-28T15:38:00;21.80;99.90
28189;DHT22;15471;51.166;4.470;2022-10-28T15:40:33;21.70;99.90
28189;DHT22;15471;51.166;4.470;2022-10-28T15:43:05;21.50;99.90
28189;DHT22;15471;51.166;4.470;2022-10-28T15:45:34;21.50;99.90
28189;DHT22;15471;51.166;4.470;2022-10-28T15:48:01;21.30;99.90
28189;DHT22;15471;51.166;4.470;2022-10-28T15:50:35;21.20;99.90
28189;DHT22;15471;51.166;4.470;2022-10-28T15:55:38;21.20;99.90
28189;DHT22;15471;51.166;4.470;2022-10-28T16:00:52;21.00;99.90
28189;DHT22;15471;51.166;4.470;2022-10-28T16:03:25;21.00;99.90
28189;DHT22;15471;51.166;4.470;2022-10-28T16:05:54;20.90;99.90
28189;DHT22;15471;51.166;4.470;2022-10-28T16:08:23;20.90;99.90
28189;DHT22;15471;51.166;4.470;2022-10-28T16:10:55;20.80;99.90
28189;DHT22;15471;51.166;4.470;2022-10-28T16:13:32;20.80;99.90
28189;DHT22;15471;51.166;4.470;2022-10-28T16:16:14;20.80;99.90
28189;DHT22;15471;51.166;4.470;2022-10-28T16:18:59;20.80;99.90
28189;DHT22;15471;51.166;4.470;2022-10-28T16:21:26;20.80;99.90
28189;DHT22;15471;51.166;4.470;2022-10-28T16:23:53;20.70;99.90
28189;DHT22;15471;51.166;4.470;2022-10-28T16:26:25;20.70;99.90
28189;DHT22;15471;51.166;4.470;2022-10-28T16:28:51;20.60;99.90
28189;DHT22;15471;51.166;4.470;2022-10-28T16:31:20;20.50;99.90
28189;DHT22;15471;51.166;4.470;2022-10-28T16:33:48;20.60;99.90
28189;DHT22;15471;51.166;4.470;2022-10-28T16:36:14;20.50;99.90
28189;DHT22;15471;51.166;4.470;2022-10-28T16:38:40;20.50;99.90
28189;DHT22;15471;51.166;4.470;2022-10-28T16:41:12;20.40;99.90
28189;DHT22;15471;51.166;4.470;2022-10-28T16:43:38;20.40;99.90
28189;DHT22;15471;51.166;4.470;2022-10-28T16:46:05;20.40;99.90
28189;DHT22;15471;51.166;4.470;2022-10-28T16:48:31;20.30;99.90
28189;DHT22;15471;51.166;4.470;2022-10-28T16:51:03;20.30;99.90
28189;DHT22;15471;51.166;4.470;2022-10-28T16:53:30;20.30;99.90
28189;DHT22;15471;51.166;4.470;2022-10-28T16:55:57;20.30;99.90
28189;DHT22;15471;51.166;4.470;2022-10-28T16:58:27;20.30;99.90
28189;DHT22;15471;51.166;4.470;2022-10-28T17:00:54;20.20;99.90
28189;DHT22;15471;51.166;4.470;2022-10-28T17:03:21;20.10;99.90
28189;DHT22;15471;51.166;4.470;2022-10-28T17:05:49;20.10;99.90
28189;DHT22;15471;51.166;4.470;2022-10-28T17:08:16;20.10;99.90
28189;DHT22;15471;51.166;4.470;2022-10-28T17:10:42;20.00;99.90
28189;DHT22;15471;51.166;4.470;2022-10-28T17:13:13;20.00;99.90
28189;DHT22;15471;51.166;4.470;2022-10-28T17:15:41;20.00;99.90
28189;DHT22;15471;51.166;4.470;2022-10-28T17:18:09;19.90;99.90
28189;DHT22;15471;51.166;4.470;2022-10-28T17:20:37;19.80;99.90
28189;DHT22;15471;51.166;4.470;2022-10-28T17:23:04;19.80;99.90
28189;DHT22;15471;51.166;4.470;2022-10-28T17:25:30;19.80;99.90
28189;DHT22;15471;51.166;4.470;2022-10-28T17:27:57;19.70;99.90
28189;DHT22;15471;51.166;4.470;2022-10-28T17:30:23;19.60;99.90
28189;DHT22;15471;51.166;4.470;2022-10-28T17:32:51;19.60;99.90
28189;DHT22;15471;51.166;4.470;2022-10-28T17:35:19;19.50;99.90
28189;DHT22;15471;51.166;4.470;2022-10-28T17:37:45;19.50;99.90
28189;DHT22;15471;51.166;4.470;2022-10-28T17:40:12;19.50;99.90
28189;DHT22;15471;51.166;4.470;2022-10-28T17:42:39;19.50;99.90
28189;DHT22;15471;51.166;4.470;2022-10-28T17:45:05;19.50;99.90
28189;DHT22;15471;51.166;4.470;2022-10-28T17:47:35;19.40;99.90
28189;DHT22;15471;51.166;4.470;2022-10-28T17:50:01;19.30;99.90
28189;DHT22;15471;51.166;4.470;2022-10-28T17:52:28;19.20;99.90
28189;DHT22;15471;51.166;4.470;2022-10-28T17:54:54;19.20;99.90
28189;DHT22;15471;51.166;4.470;2022-10-28T17:57:20;19.20;99.90
28189;DHT22;15471;51.166;4.470;2022-10-28T17:59:49;19.10;99.90
28189;DHT22;15471;51.166;4.470;2022-10-28T18:02:16;19.10;99.90
28189;DHT22;15471;51.166;4.470;2022-10-28T18:04:43;19.10;99.90
28189;DHT22;15471;51.166;4.470;2022-10-28T18:07:11;19.10;99.90
28189;DHT22;15471;51.166;4.470;2022-10-28T18:09:38;19.00;99.90
28189;DHT22;15471;51.166;4.470;2022-10-28T18:12:07;19.00;99.90
28189;DHT22;15471;51.166;4.470;2022-10-28T18:14:33;18.90;99.90
28189;DHT22;15471;51.166;4.470;2022-10-28T18:17:00;18.70;99.90
28189;DHT22;15471;51.166;4.470;2022-10-28T18:19:33;18.70;99.90
28189;DHT22;15471;51.166;4.470;2022-10-28T18:22:40;18.60;99.90
28189;DHT22;15471;51.166;4.470;2022-10-28T18:25:26;18.60;99.90
28189;DHT22;15471;51.166;4.470;2022-10-28T18:28:04;18.60;99.90
28189;DHT22;15471;51.166;4.470;2022-10-28T18:30:46;18.60;99.90
28189;DHT22;15471;51.166;4.470;2022-10-28T18:33:20;18.60;99.90
28189;DHT22;15471;51.166;4.470;2022-10-28T18:36:10;18.60;99.90
28189;DHT22;15471;51.166;4.470;2022-10-28T18:38:38;18.50;99.90
28189;DHT22;15471;51.166;4.470;2022-10-28T18:41:11;18.50;99.90
28189;DHT22;15471;51.166;4.470;2022-10-28T18:43:46;18.50;99.90
28189;DHT22;15471;51.166;4.470;2022-10-28T18:46:25;18.40;99.90
28189;DHT22;15471;51.166;4.470;2022-10-28T18:48:57;18.40;99.90
28189;DHT22;15471;51.166;4.470;2022-10-28T18:51:33;18.30;99.90
28189;DHT22;15471;51.166;4.470;2022-10-28T18:54:03;18.20;99.90
28189;DHT22;15471;51.166;4.470;2022-10-28T18:56:37;18.30;99.90
28189;DHT22;15471;51.166;4.470;2022-10-28T18:59:08;18.20;99.90